createdAt,value
2019-02-26T00:04:02.041Z,82.03
2019-02-26T00:09:08.450Z,82.22
2019-02-26T00:14:15.502Z,81.94
2019-02-26T00:19:17.019Z,82.33
2019-02-26T00:24:20.501Z,82.72
2019-02-26T00:29:25.342Z,82.98
2019-02-26T00:34:30.471Z,82.94
2019-02-26T00:39:34.317Z,84.19
2019-02-26T00:44:37.754Z,84.77
2019-02-26T00:49:41.978Z,84.34
2019-02-26T00:54:46.297Z,84.18
2019-02-26T00:59:49.713Z,84.05
2019-02-26T01:04:53.168Z,83.66
2019-02-26T01:09:56.984Z,84.12
2019-02-26T01:15:03.136Z,83.31
2019-02-26T01:20:10.015Z,83.37
2019-02-26T01:25:15.867Z,83.40
2019-02-26T01:30:23.562Z,84.01
2019-02-26T01:35:23.920Z,83.82
2019-02-26T01:40:27.358Z,84.01
2019-02-26T01:45:32.408Z,84.13
2019-02-26T01:50:37.854Z,85.23
2019-02-26T01:55:42.071Z,85.17
2019-02-26T02:00:46.139Z,84.48
2019-02-26T02:05:50.343Z,84.46
2019-02-26T02:10:58.918Z,85.01
2019-02-26T02:16:02.035Z,85.37
2019-02-26T02:21:04.961Z,85.96
2019-02-26T02:26:09.426Z,85.73
2019-02-26T02:31:13.598Z,85.02
2019-02-26T02:36:17.734Z,85.59
2019-02-26T02:41:22.161Z,85.88
2019-02-26T02:46:25.643Z,85.76
2019-02-26T02:51:31.470Z,86.69
2019-02-26T02:56:37.001Z,86.59
2019-02-26T03:01:39.576Z,86.02
2019-02-26T03:06:42.999Z,85.85
2019-02-26T03:11:47.256Z,86.64
2019-02-26T03:16:53.482Z,86.14
2019-02-26T03:21:56.684Z,86.23
2019-02-26T03:27:00.247Z,87.53
2019-02-26T03:32:03.617Z,88.98
2019-02-26T03:37:08.230Z,88.28
2019-02-26T03:42:14.156Z,88.21
2019-02-26T03:47:18.724Z,90.36
2019-02-26T03:52:22.689Z,92.47
2019-02-26T03:57:26.117Z,92.03
2019-02-26T04:02:29.610Z,89.65
2019-02-26T04:07:33.968Z,90.05
2019-02-26T04:12:41.830Z,89.35
2019-02-26T04:17:43.394Z,89.28
2019-02-26T04:22:49.918Z,89.16
2019-02-26T04:27:56.991Z,89.97
2019-02-26T04:33:39.243Z,88.42
2019-02-26T04:39:18.928Z,88.94
2019-02-26T04:44:29.221Z,88.39
2019-02-26T04:49:36.010Z,87.54
2019-02-26T04:54:39.582Z,87.09
2019-02-26T04:59:44.037Z,87.40
2019-02-26T05:04:47.552Z,87.02
2019-02-26T05:09:53.253Z,87.96
2019-02-26T05:14:56.124Z,88.43
2019-02-26T05:19:59.633Z,88.93
2019-02-26T05:25:04.755Z,89.20
2019-02-26T05:30:12.455Z,90.06
2019-02-26T05:35:17.363Z,89.03
2019-02-26T05:40:22.100Z,89.89
2019-02-26T05:45:26.562Z,90.36
2019-02-26T05:50:32.074Z,90.30
2019-02-26T05:55:35.160Z,90.06
2019-02-26T06:00:38.639Z,90.97
2019-02-26T06:05:45.759Z,91.55
2019-02-26T06:10:47.898Z,90.63
2019-02-26T06:15:52.288Z,88.55
2019-02-26T06:20:58.442Z,90.17
2019-02-26T06:26:04.930Z,93.74
2019-02-26T06:31:06.911Z,92.17
2019-02-26T06:36:10.989Z,90.71
2019-02-26T06:41:14.432Z,89.07
2019-02-26T06:46:17.883Z,89.43
2019-02-26T06:51:23.736Z,89.03
2019-02-26T06:56:26.481Z,88.41
2019-02-26T07:01:32.385Z,87.77
2019-02-26T07:06:35.085Z,87.34
2019-02-26T07:11:38.501Z,87.45
2019-02-26T07:16:41.933Z,86.53
2019-02-26T07:21:45.486Z,85.44
2019-02-26T07:26:50.498Z,85.41
2019-02-26T07:31:54.881Z,85.77
2019-02-26T07:36:59.082Z,85.33
2019-02-26T07:42:02.521Z,85.12
2019-02-26T07:47:06.682Z,85.48
2019-02-26T07:52:11.156Z,84.94
2019-02-26T07:57:15.760Z,87.65
2019-02-26T08:02:19.721Z,87.99
2019-02-26T08:07:24.496Z,91.08
2019-02-26T08:12:28.321Z,94.92
2019-02-26T08:17:31.775Z,94.07
2019-02-26T08:22:36.290Z,94.54
2019-02-26T08:27:39.806Z,94.96
2019-02-26T08:32:43.403Z,91.63
2019-02-26T08:37:46.826Z,91.63
2019-02-26T08:42:50.245Z,92.47
2019-02-26T08:47:53.735Z,92.56
2019-02-26T08:52:58.493Z,85.80
2019-02-26T08:58:02.050Z,86.05
2019-02-26T09:03:05.716Z,81.25
2019-02-26T09:08:10.898Z,78.68
2019-02-26T09:13:16.312Z,76.58
2019-02-26T09:18:20.430Z,75.23
2019-02-26T09:23:25.825Z,73.43
2019-02-26T09:28:32.004Z,72.45
2019-02-26T09:33:36.344Z,71.32
2019-02-26T09:38:41.892Z,68.37
2019-02-26T09:43:46.317Z,67.07
2019-02-26T09:48:50.539Z,65.37
2019-02-26T09:53:56.182Z,65.92
2019-02-26T09:58:59.139Z,64.16
2019-02-26T10:04:04.992Z,63.32
2019-02-26T10:09:10.651Z,60.94
2019-02-26T10:14:15.030Z,58.42
2019-02-26T10:19:19.526Z,56.10
2019-02-26T10:24:27.155Z,53.78
2019-02-26T10:29:28.227Z,54.26
2019-02-26T10:34:31.759Z,54.79
2019-02-26T10:39:35.213Z,51.90
2019-02-26T10:44:38.654Z,51.58
2019-02-26T10:49:42.098Z,49.62
2019-02-26T10:54:46.600Z,49.17
2019-02-26T10:59:50.141Z,48.43
2019-02-26T11:04:55.417Z,42.28
2019-02-26T11:09:59.027Z,43.14
2019-02-26T11:15:04.983Z,41.89
2019-02-26T11:20:10.919Z,40.94
2019-02-26T11:25:18.499Z,38.75
2019-02-26T11:30:27.253Z,38.25
2019-02-26T11:35:29.331Z,38.52
2019-02-26T11:40:32.775Z,37.26
2019-02-26T11:45:37.098Z,37.17
2019-02-26T11:50:44.575Z,36.84
2019-02-26T11:55:49.356Z,34.38
2019-02-26T12:00:54.161Z,38.78
2019-02-26T12:06:00.589Z,35.53
2019-02-26T12:11:03.979Z,35.25
2019-02-26T12:16:07.934Z,33.04
2019-02-26T12:21:12.852Z,32.62
2019-02-26T12:26:19.187Z,28.03
2019-02-26T12:31:21.682Z,28.69
2019-02-26T12:36:26.598Z,28.10
2019-02-26T12:41:32.433Z,28.52
2019-02-26T12:46:35.517Z,27.48
2019-02-26T12:51:39.017Z,30.46
2019-02-26T12:56:42.462Z,28.94
2019-02-26T13:01:46.819Z,29.01
2019-02-26T13:06:52.038Z,29.18
2019-02-26T13:12:01.284Z,28.71
2019-02-26T13:17:00.748Z,28.40
2019-02-26T13:22:06.706Z,28.01
2019-02-26T13:27:09.389Z,27.67
2019-02-26T13:32:16.843Z,28.44
2019-02-26T13:37:17.994Z,29.36
2019-02-26T13:42:21.442Z,29.09
2019-02-26T13:47:25.045Z,29.06
2019-02-26T13:52:28.489Z,30.08
2019-02-26T13:57:31.935Z,29.92
2019-02-26T14:02:35.430Z,28.97
2019-02-26T14:07:38.867Z,27.96
2019-02-26T14:12:42.343Z,29.02
2019-02-26T14:17:45.799Z,27.83
2019-02-26T14:22:49.328Z,24.11
2019-02-26T14:27:52.760Z,26.24
2019-02-26T14:32:56.266Z,27.54
2019-02-26T14:37:59.741Z,24.75
2019-02-26T14:43:03.154Z,26.17
2019-02-26T14:48:06.623Z,27.76
2019-02-26T14:53:10.049Z,28.17
2019-02-26T14:58:13.502Z,21.54
2019-02-26T15:03:17.003Z,21.54
2019-02-26T15:08:20.460Z,22.95
2019-02-26T15:13:25.479Z,25.64
2019-02-26T15:18:29.091Z,26.37
2019-02-26T15:23:32.502Z,28.75
2019-02-26T15:28:35.974Z,29.44
2019-02-26T15:33:39.486Z,29.51
2019-02-26T15:38:42.949Z,31.51
2019-02-26T15:43:46.455Z,31.94
2019-02-26T15:48:49.911Z,31.67
2019-02-26T15:53:55.709Z,31.95
2019-02-26T15:58:58.934Z,28.23
2019-02-26T16:04:02.379Z,29.28
2019-02-26T16:09:07.259Z,30.70
2019-02-26T16:14:10.715Z,29.31
2019-02-26T16:19:14.214Z,31.24
2019-02-26T16:24:17.664Z,31.18
2019-02-26T16:29:21.102Z,32.53
2019-02-26T16:34:24.515Z,34.75
2019-02-26T16:39:27.936Z,35.07
2019-02-26T16:44:31.627Z,36.07
2019-02-26T16:49:35.048Z,37.02
2019-02-26T16:54:38.674Z,37.13
2019-02-26T16:59:43.662Z,36.97
2019-02-26T17:04:47.106Z,37.54
2019-02-26T17:09:50.559Z,38.13
2019-02-26T17:14:54.036Z,37.99
2019-02-26T17:19:57.528Z,37.88
2019-02-26T17:25:01.037Z,38.02
2019-02-26T17:30:07.365Z,38.74
2019-02-26T17:35:11.640Z,39.06
2019-02-26T17:40:20.202Z,39.68
2019-02-26T17:45:37.229Z,38.49
2019-02-26T17:50:43.369Z,39.03
2019-02-26T17:55:47.023Z,39.98
2019-02-26T18:00:53.026Z,40.33
2019-02-26T18:05:56.435Z,40.46
2019-02-26T18:10:59.863Z,40.62
2019-02-26T18:16:09.186Z,41.89
2019-02-26T18:21:08.441Z,42.74
2019-02-26T18:26:11.893Z,41.96
2019-02-26T18:31:15.308Z,42.19
2019-02-26T18:36:18.741Z,42.59
2019-02-26T18:41:22.167Z,43.05
2019-02-26T18:46:25.593Z,42.54
2019-02-26T18:51:29.157Z,43.18
2019-02-26T18:56:36.690Z,44.39
2019-02-26T19:01:38.600Z,44.15
2019-02-26T19:06:42.017Z,45.54
2019-02-26T19:11:45.451Z,45.92
2019-02-26T19:16:48.908Z,45.10
2019-02-26T19:21:54.176Z,46.62
2019-02-26T19:26:57.548Z,48.08
2019-02-26T19:32:01.076Z,47.20
2019-02-26T19:37:04.504Z,47.68
2019-02-26T19:42:07.918Z,49.16
2019-02-26T19:47:11.347Z,48.82
2019-02-26T19:52:14.798Z,50.24
2019-02-26T19:57:18.225Z,50.01
2019-02-26T20:02:21.667Z,51.24
2019-02-26T20:07:25.089Z,50.73
2019-02-26T20:12:29.223Z,52.00
2019-02-26T20:17:32.668Z,52.79
2019-02-26T20:22:36.112Z,53.39
2019-02-26T20:27:39.537Z,54.26
2019-02-26T20:32:43.011Z,53.58
2019-02-26T20:37:46.500Z,53.93
2019-02-26T20:42:49.913Z,54.10
2019-02-26T20:47:53.416Z,55.17
2019-02-26T20:52:56.846Z,55.79
2019-02-26T20:58:00.261Z,56.05
2019-02-26T21:03:03.702Z,57.12
2019-02-26T21:08:07.288Z,57.71
2019-02-26T21:13:10.707Z,58.43
2019-02-26T21:18:14.128Z,57.48
2019-02-26T21:23:17.567Z,59.62
2019-02-26T21:28:20.982Z,60.62
2019-02-26T21:33:24.405Z,61.38
2019-02-26T21:38:27.838Z,61.58
2019-02-26T21:43:34.795Z,61.70
2019-02-26T21:48:37.233Z,61.79
2019-02-26T21:53:40.712Z,61.66
2019-02-26T21:58:44.142Z,62.31
2019-02-26T22:03:58.561Z,63.13
2019-02-26T22:09:01.744Z,63.34
2019-02-26T22:14:05.444Z,63.78
2019-02-26T22:19:08.865Z,63.44
2019-02-26T22:24:12.279Z,63.52
2019-02-26T22:29:15.860Z,64.64
2019-02-26T22:34:19.765Z,64.61
2019-02-26T22:39:23.339Z,65.16
2019-02-26T22:44:26.708Z,65.10
2019-02-26T22:49:30.176Z,65.52
2019-02-26T22:54:34.984Z,65.93
2019-02-26T22:59:40.892Z,66.20
2019-02-26T23:04:43.706Z,66.37
2019-02-26T23:09:51.920Z,66.40
2019-02-26T23:14:53.417Z,66.97
2019-02-26T23:19:57.101Z,67.00
2019-02-26T23:25:01.508Z,66.89
2019-02-26T23:30:10.840Z,67.27
2019-02-26T23:35:15.031Z,67.72
2019-02-26T23:40:19.934Z,67.19
2019-02-26T23:45:24.220Z,67.70
2019-02-26T23:50:28.367Z,68.22
2019-02-26T23:55:31.818Z,68.37
